createdAt,value
2022-08-19T00:00:59.934Z,21.09
2022-08-19T00:03:26.414Z,20.35
2022-08-19T00:05:52.905Z,20.03
2022-08-19T00:08:19.420Z,21.11
2022-08-19T00:10:46.881Z,20.42
2022-08-19T00:13:13.386Z,20.07
2022-08-19T00:15:40.089Z,19.93
2022-08-19T00:18:06.601Z,19.94
2022-08-19T00:20:33.102Z,20.18
2022-08-19T00:22:59.655Z,20.49
2022-08-19T00:25:30.254Z,20.58
2022-08-19T00:27:57.254Z,20.35
2022-08-19T00:30:24.661Z,20.13
2022-08-19T00:32:51.765Z,20.20
2022-08-19T00:35:19.497Z,20.16
2022-08-19T00:37:46.039Z,19.72
2022-08-19T00:40:13.357Z,19.53
2022-08-19T00:42:40.319Z,19.60
2022-08-19T00:45:10.715Z,19.57
2022-08-19T00:47:37.244Z,19.44
2022-08-19T00:50:04.568Z,19.63
2022-08-19T00:52:33.146Z,19.62
2022-08-19T00:55:00.657Z,19.61
2022-08-19T00:57:29.183Z,19.71
2022-08-19T01:00:02.531Z,19.70
2022-08-19T01:02:30.457Z,19.61
2022-08-19T01:04:57.156Z,19.44
2022-08-19T01:07:23.947Z,19.18
2022-08-19T01:09:50.782Z,19.25
2022-08-19T01:12:17.818Z,19.31
2022-08-19T01:14:44.509Z,19.28
2022-08-19T01:17:12.094Z,19.50
2022-08-19T01:19:43.951Z,19.73
2022-08-19T01:22:27.717Z,20.22
2022-08-19T01:24:57.595Z,20.03
2022-08-19T01:27:25.958Z,19.94
2022-08-19T01:29:52.656Z,19.70
2022-08-19T01:32:21.154Z,19.35
2022-08-19T01:35:02.508Z,19.58
2022-08-19T01:37:29.151Z,19.48
2022-08-19T01:39:55.671Z,19.35
2022-08-19T01:42:23.131Z,19.46
2022-08-19T01:44:57.306Z,19.63
2022-08-19T01:47:23.866Z,19.61
2022-08-19T01:49:50.405Z,19.38
2022-08-19T01:52:16.981Z,19.28
2022-08-19T01:54:43.489Z,19.29
2022-08-19T01:57:12.230Z,18.96
2022-08-19T01:59:40.278Z,19.15
2022-08-19T02:02:09.356Z,19.17
2022-08-19T02:04:36.698Z,19.19
2022-08-19T02:07:03.258Z,19.13
2022-08-19T02:09:29.754Z,19.09
2022-08-19T02:11:56.652Z,19.47
2022-08-19T02:14:23.161Z,19.50
2022-08-19T02:16:49.833Z,19.62
2022-08-19T02:19:16.345Z,19.54
2022-08-19T02:21:44.482Z,19.41
2022-08-19T02:24:11.029Z,19.43
2022-08-19T02:26:37.669Z,19.28
2022-08-19T02:29:04.774Z,19.18
2022-08-19T02:31:31.296Z,19.37
2022-08-19T02:33:57.944Z,19.53
2022-08-19T02:36:25.334Z,19.74
2022-08-19T02:38:54.477Z,19.65
2022-08-19T02:41:23.899Z,19.69
2022-08-19T02:44:26.702Z,19.90
2022-08-19T02:46:40.886Z,19.59
2022-08-19T02:49:08.426Z,19.73
2022-08-19T02:51:39.745Z,19.88
2022-08-19T02:54:07.058Z,19.52
2022-08-19T02:56:35.778Z,19.26
2022-08-19T02:59:02.689Z,19.31
2022-08-19T03:01:31.321Z,19.29
2022-08-19T03:03:58.923Z,19.04
2022-08-19T03:06:25.882Z,19.38
2022-08-19T03:08:52.447Z,19.52
2022-08-19T03:11:23.696Z,19.62
2022-08-19T03:13:51.819Z,19.68
2022-08-19T03:16:19.402Z,19.55
2022-08-19T03:18:45.951Z,19.41
2022-08-19T03:21:19.439Z,19.52
2022-08-19T03:23:46.358Z,19.69
2022-08-19T03:26:16.367Z,19.60
2022-08-19T03:28:50.880Z,19.41
2022-08-19T03:31:45.481Z,19.48
2022-08-19T03:34:12.618Z,19.30
2022-08-19T03:36:40.286Z,19.08
2022-08-19T03:39:06.768Z,19.15
2022-08-19T03:41:44.851Z,19.17
2022-08-19T03:44:21.565Z,19.26
2022-08-19T03:46:49.428Z,19.39
2022-08-19T03:49:18.391Z,19.54
2022-08-19T03:51:45.817Z,19.71
2022-08-19T03:54:13.865Z,19.94
2022-08-19T03:56:41.494Z,19.84
2022-08-19T03:59:09.514Z,19.99
2022-08-19T04:01:36.333Z,19.98
2022-08-19T04:04:04.614Z,20.22
2022-08-19T04:06:32.374Z,20.38
2022-08-19T04:08:59.926Z,20.66
2022-08-19T04:11:43.211Z,21.29
2022-08-19T04:14:11.879Z,21.45
2022-08-19T04:16:38.454Z,21.20
2022-08-19T04:19:05.990Z,21.39
2022-08-19T04:21:32.973Z,20.69
2022-08-19T04:23:59.511Z,21.27
2022-08-19T04:26:29.149Z,21.56
2022-08-19T04:28:56.124Z,21.77
2022-08-19T04:31:26.943Z,22.23
2022-08-19T04:33:54.582Z,21.92
2022-08-19T04:36:22.776Z,22.04
2022-08-19T04:38:49.801Z,21.96
2022-08-19T04:41:35.491Z,22.12
2022-08-19T04:46:38.153Z,22.11
2022-08-19T04:49:13.033Z,22.30
2022-08-19T04:51:41.945Z,22.54
2022-08-19T04:54:08.483Z,22.90
2022-08-19T04:56:35.242Z,23.05
2022-08-19T04:59:05.171Z,23.02
2022-08-19T05:01:37.422Z,22.76
2022-08-19T05:04:05.618Z,22.90
2022-08-19T05:06:36.138Z,23.04
2022-08-19T05:09:04.729Z,23.22
2022-08-19T05:11:34.549Z,23.14
2022-08-19T05:14:01.566Z,23.12
2022-08-19T05:16:28.692Z,22.87
2022-08-19T05:19:14.395Z,22.69
2022-08-19T05:21:59.787Z,22.75
2022-08-19T05:24:26.857Z,22.75
2022-08-19T05:26:57.499Z,22.81
2022-08-19T05:29:25.449Z,22.74
2022-08-19T05:31:52.659Z,22.81
2022-08-19T05:34:22.599Z,22.73
2022-08-19T05:36:49.815Z,22.81
2022-08-19T05:39:17.969Z,22.90
2022-08-19T05:41:45.359Z,22.98
2022-08-19T05:44:12.059Z,23.15
2022-08-19T05:46:39.138Z,23.22
2022-08-19T05:49:08.912Z,23.27
2022-08-19T05:51:38.310Z,23.07
2022-08-19T05:54:06.315Z,23.34
2022-08-19T05:56:32.974Z,23.68
2022-08-19T05:58:59.882Z,23.63
2022-08-19T06:01:27.141Z,23.51
2022-08-19T06:03:54.637Z,23.44
2022-08-19T06:06:21.615Z,23.70
2022-08-19T06:08:51.063Z,23.98
2022-08-19T06:11:20.375Z,24.54
2022-08-19T06:13:51.860Z,24.71
2022-08-19T06:16:23.754Z,24.62
2022-08-19T06:18:52.529Z,24.56
2022-08-19T06:21:23.365Z,24.72
2022-08-19T06:23:51.315Z,24.40
2022-08-19T06:26:19.451Z,24.54
2022-08-19T06:28:49.712Z,24.88
2022-08-19T06:31:17.384Z,25.20
2022-08-19T06:33:44.191Z,25.43
2022-08-19T06:36:41.525Z,25.41
2022-08-19T06:39:15.289Z,25.49
2022-08-19T06:41:47.615Z,25.37
2022-08-19T06:44:19.223Z,25.46
2022-08-19T06:46:54.543Z,25.44
2022-08-19T06:49:21.555Z,25.44
2022-08-19T06:51:48.934Z,25.45
2022-08-19T06:54:20.085Z,25.39
2022-08-19T06:56:47.190Z,25.25
2022-08-19T06:59:15.865Z,25.44
2022-08-19T07:01:46.741Z,25.29
2022-08-19T07:04:14.930Z,25.02
2022-08-19T07:06:44.217Z,24.77
2022-08-19T07:09:13.039Z,24.63
2022-08-19T07:11:39.712Z,25.00
2022-08-19T07:14:07.036Z,25.02
2022-08-19T07:16:46.909Z,24.96
2022-08-19T07:19:16.085Z,24.45
2022-08-19T07:21:43.182Z,24.92
2022-08-19T07:24:10.420Z,25.05
2022-08-19T07:26:42.190Z,25.21
2022-08-19T07:29:09.233Z,24.84
2022-08-19T07:31:38.457Z,24.98
2022-08-19T07:34:09.538Z,24.62
2022-08-19T07:36:38.342Z,24.62
2022-08-19T07:39:06.906Z,23.94
2022-08-19T07:41:33.539Z,23.61
2022-08-19T07:44:04.437Z,23.87
2022-08-19T07:46:34.755Z,23.75
2022-08-19T07:49:01.436Z,23.09
2022-08-19T07:51:28.695Z,22.88
2022-08-19T07:54:03.753Z,22.84
2022-08-19T07:56:30.318Z,22.92
2022-08-19T08:01:28.753Z,22.70
2022-08-19T08:04:15.026Z,22.56
2022-08-19T08:07:00.401Z,22.29
2022-08-19T08:09:28.802Z,21.98
2022-08-19T08:12:01.895Z,22.12
2022-08-19T08:14:35.071Z,22.28
2022-08-19T08:17:02.495Z,22.62
2022-08-19T08:19:29.602Z,22.88
2022-08-19T08:21:57.465Z,22.12
2022-08-19T08:24:28.668Z,22.02
2022-08-19T08:26:57.079Z,22.27
2022-08-19T08:29:24.566Z,21.49
2022-08-19T08:31:53.458Z,21.49
2022-08-19T08:34:26.247Z,21.48
2022-08-19T08:36:52.773Z,21.80
2022-08-19T08:39:20.937Z,22.03
2022-08-19T08:42:10.361Z,21.77
2022-08-19T08:47:26.145Z,22.43
2022-08-19T08:49:56.103Z,21.79
2022-08-19T08:52:24.753Z,21.76
2022-08-19T08:54:59.943Z,22.64
2022-08-19T08:57:28.998Z,22.71
2022-08-19T09:00:07.322Z,22.87
2022-08-19T09:02:43.493Z,22.83
2022-08-19T09:05:16.329Z,22.75
2022-08-19T09:07:50.886Z,22.59
2022-08-19T09:10:20.265Z,22.74
2022-08-19T09:12:47.308Z,22.64
2022-08-19T09:15:15.355Z,22.43
2022-08-19T09:17:41.893Z,22.46
2022-08-19T09:20:11.516Z,22.72
2022-08-19T09:22:39.323Z,22.69
2022-08-19T09:25:06.539Z,22.78
2022-08-19T09:27:35.573Z,23.54
2022-08-19T09:30:12.210Z,23.86
2022-08-19T09:32:43.278Z,24.11
2022-08-19T09:35:10.195Z,24.50
2022-08-19T09:37:37.519Z,24.22
2022-08-19T09:40:04.502Z,24.59
2022-08-19T09:42:35.366Z,24.82
2022-08-19T09:45:02.234Z,24.65
2022-08-19T09:47:31.782Z,24.88
2022-08-19T09:49:58.993Z,24.65
2022-08-19T09:52:25.955Z,24.85
2022-08-19T09:54:59.552Z,25.52
2022-08-19T09:57:26.100Z,25.34
2022-08-19T09:59:52.569Z,24.68
2022-08-19T10:02:22.257Z,24.34
2022-08-19T10:05:07.923Z,24.17
2022-08-19T10:07:36.340Z,24.27
2022-08-19T10:10:04.816Z,24.19
2022-08-19T10:12:31.454Z,24.34
2022-08-19T10:14:58.004Z,23.86
2022-08-19T10:17:27.578Z,24.44
2022-08-19T10:20:00.745Z,24.28
2022-08-19T10:22:27.494Z,23.73
2022-08-19T10:24:54.091Z,23.96
2022-08-19T10:27:20.610Z,24.22
2022-08-19T10:29:48.816Z,24.67
2022-08-19T10:32:15.494Z,24.48
2022-08-19T10:34:48.738Z,24.41
2022-08-19T10:37:18.070Z,23.64
2022-08-19T10:39:55.564Z,24.25
2022-08-19T10:42:22.371Z,24.39
2022-08-19T10:44:49.065Z,24.92
2022-08-19T10:47:25.067Z,24.68
2022-08-19T10:50:12.177Z,24.75
2022-08-19T10:52:40.258Z,25.27
2022-08-19T10:55:36.005Z,25.39
2022-08-19T10:58:02.967Z,26.01
2022-08-19T11:00:31.759Z,25.90
2022-08-19T11:02:58.450Z,25.20
2022-08-19T11:05:25.163Z,25.81
2022-08-19T11:07:52.618Z,26.95
2022-08-19T11:10:21.909Z,27.30
2022-08-19T11:12:49.160Z,27.75
2022-08-19T11:15:15.887Z,27.92
2022-08-19T11:17:44.439Z,27.93
2022-08-19T11:20:14.914Z,29.30
2022-08-19T11:22:42.294Z,28.97
2022-08-19T11:25:10.849Z,28.30
2022-08-19T11:27:43.263Z,28.62
2022-08-19T11:30:13.233Z,27.51
2022-08-19T11:32:43.437Z,27.59
2022-08-19T11:35:12.365Z,27.74
2022-08-19T11:37:39.013Z,26.79
2022-08-19T11:40:06.430Z,28.44
2022-08-19T11:42:51.800Z,27.56
2022-08-19T11:45:18.888Z,28.73
2022-08-19T11:47:45.386Z,28.48
2022-08-19T11:50:11.861Z,29.13
2022-08-19T11:52:38.428Z,28.27
2022-08-19T11:55:05.214Z,28.29
2022-08-19T11:57:32.143Z,28.64
2022-08-19T11:59:58.655Z,29.44
2022-08-19T12:02:25.146Z,29.71
2022-08-19T12:04:51.743Z,30.46
2022-08-19T12:07:18.223Z,30.58
2022-08-19T12:09:44.870Z,30.97
2022-08-19T12:12:12.598Z,30.29
2022-08-19T12:14:39.504Z,30.15
2022-08-19T12:17:08.378Z,30.55
2022-08-19T12:19:36.930Z,30.02
2022-08-19T12:22:04.287Z,31.17
2022-08-19T12:24:33.948Z,31.50
2022-08-19T12:27:03.069Z,31.58
2022-08-19T12:29:30.587Z,31.97
2022-08-19T12:32:02.249Z,31.48
2022-08-19T12:34:31.642Z,32.19
2022-08-19T12:36:58.784Z,31.21
2022-08-19T12:39:25.637Z,30.21
2022-08-19T12:41:54.756Z,31.01
2022-08-19T12:44:28.926Z,32.10
2022-08-19T12:46:56.871Z,32.82
2022-08-19T12:49:52.529Z,32.26
2022-08-19T12:52:16.650Z,31.78
2022-08-19T12:54:49.002Z,31.69
2022-08-19T12:57:21.869Z,32.21
2022-08-19T12:59:54.050Z,31.96
2022-08-19T13:02:20.802Z,31.34
2022-08-19T13:04:47.601Z,32.03
2022-08-19T13:07:14.300Z,31.19
2022-08-19T13:09:43.521Z,31.45
2022-08-19T13:12:13.815Z,31.65
2022-08-19T13:14:41.330Z,31.32
2022-08-19T13:17:09.248Z,31.36
2022-08-19T13:19:37.487Z,31.12
2022-08-19T13:22:03.991Z,30.26
2022-08-19T13:24:33.860Z,29.24
2022-08-19T13:27:01.166Z,29.52
2022-08-19T13:29:46.179Z,29.15
2022-08-19T13:32:31.487Z,29.01
2022-08-19T13:34:58.085Z,29.73
2022-08-19T13:37:42.083Z,29.93
2022-08-19T13:40:13.874Z,31.00
2022-08-19T13:42:40.987Z,31.79
2022-08-19T13:45:08.021Z,31.31
2022-08-19T13:47:45.322Z,32.66
2022-08-19T13:50:13.053Z,32.34
2022-08-19T13:52:39.937Z,31.65
2022-08-19T13:55:07.085Z,31.14
2022-08-19T13:57:33.770Z,32.03
2022-08-19T14:00:00.329Z,32.40
2022-08-19T14:02:27.462Z,32.17
2022-08-19T14:04:54.166Z,31.80
2022-08-19T14:07:21.201Z,31.65
2022-08-19T14:09:47.743Z,31.17
2022-08-19T14:12:19.114Z,30.91
2022-08-19T14:14:55.561Z,32.43
2022-08-19T14:17:22.492Z,31.45
2022-08-19T14:19:49.174Z,32.02
2022-08-19T14:22:15.678Z,30.69
2022-08-19T14:24:49.229Z,30.92
2022-08-19T14:27:15.763Z,31.49
2022-08-19T14:29:42.303Z,31.72
2022-08-19T14:32:13.040Z,32.34
2022-08-19T14:34:46.630Z,31.24
2022-08-19T14:37:15.342Z,31.07
2022-08-19T14:39:42.404Z,31.66
2022-08-19T14:42:11.398Z,30.81
2022-08-19T14:44:38.821Z,30.71
2022-08-19T14:47:05.483Z,30.59
2022-08-19T14:49:35.369Z,30.85
2022-08-19T14:52:08.918Z,30.78
2022-08-19T14:54:35.447Z,31.75
2022-08-19T14:57:02.041Z,31.10
2022-08-19T14:59:28.846Z,31.35
2022-08-19T15:01:55.430Z,32.03
2022-08-19T15:04:21.986Z,30.84
2022-08-19T15:06:48.488Z,30.70
2022-08-19T15:09:15.052Z,30.28
2022-08-19T15:11:41.602Z,29.47
2022-08-19T15:14:08.109Z,30.04
2022-08-19T15:16:34.621Z,30.17
2022-08-19T15:19:01.339Z,29.57
2022-08-19T15:21:28.636Z,29.68
2022-08-19T15:23:56.520Z,29.86
2022-08-19T15:26:23.049Z,29.58
2022-08-19T15:28:49.833Z,29.63
2022-08-19T15:31:25.426Z,29.53
2022-08-19T15:33:58.166Z,28.89
2022-08-19T15:36:26.224Z,28.49
2022-08-19T15:38:53.280Z,28.46
2022-08-19T15:41:24.243Z,28.03
2022-08-19T15:43:52.341Z,28.42
2022-08-19T15:46:20.409Z,28.88
2022-08-19T15:48:49.128Z,29.03
2022-08-19T15:51:24.701Z,28.42
2022-08-19T15:53:51.737Z,28.00
2022-08-19T15:56:18.241Z,28.35
2022-08-19T15:59:03.341Z,28.31
2022-08-19T16:01:29.898Z,27.70
2022-08-19T16:04:19.534Z,28.07
2022-08-19T16:06:47.521Z,27.46
2022-08-19T16:09:15.441Z,27.28
2022-08-19T16:11:45.894Z,27.60
2022-08-19T16:14:14.332Z,27.85
2022-08-19T16:16:40.870Z,27.72
2022-08-19T16:19:10.534Z,27.63
2022-08-19T16:21:41.805Z,27.85
2022-08-19T16:24:10.269Z,27.59
2022-08-19T16:26:36.834Z,27.20
2022-08-19T16:29:08.689Z,26.87
2022-08-19T16:31:36.650Z,26.56
2022-08-19T16:34:03.524Z,26.53
2022-08-19T16:36:31.239Z,26.58
2022-08-19T16:38:58.359Z,26.54
2022-08-19T16:41:25.005Z,26.60
2022-08-19T16:43:52.529Z,26.73
2022-08-19T16:46:19.441Z,26.73
2022-08-19T16:48:49.129Z,26.65
2022-08-19T16:51:16.038Z,26.61
2022-08-19T16:53:43.264Z,26.60
2022-08-19T16:56:09.832Z,26.26
2022-08-19T16:58:36.450Z,26.04
2022-08-19T17:01:07.720Z,25.87
2022-08-19T17:03:35.768Z,25.79
2022-08-19T17:06:04.018Z,25.85
2022-08-19T17:08:31.418Z,25.85
2022-08-19T17:11:16.930Z,25.66
2022-08-19T17:13:44.421Z,25.33
2022-08-19T17:16:14.033Z,24.71
2022-08-19T17:18:40.603Z,24.41
2022-08-19T17:21:07.120Z,24.30
2022-08-19T17:23:43.143Z,23.82
2022-08-19T17:26:18.159Z,23.54
2022-08-19T17:28:47.154Z,23.58
2022-08-19T17:31:13.695Z,23.47
2022-08-19T17:33:41.417Z,23.14
2022-08-19T17:36:08.456Z,23.28
2022-08-19T17:38:35.907Z,23.19
2022-08-19T17:41:05.822Z,23.30
2022-08-19T17:43:33.870Z,23.00
2022-08-19T17:46:03.222Z,22.89
2022-08-19T17:48:39.482Z,23.12
2022-08-19T17:51:16.474Z,23.05
2022-08-19T17:53:43.224Z,22.91
2022-08-19T17:56:10.682Z,22.88
2022-08-19T17:58:40.470Z,22.75
2022-08-19T18:01:10.284Z,22.86
2022-08-19T18:03:37.215Z,23.22
2022-08-19T18:06:03.760Z,23.43
2022-08-19T18:08:30.291Z,23.09
2022-08-19T18:10:56.832Z,22.43
2022-08-19T18:13:23.324Z,22.37
2022-08-19T18:15:50.294Z,22.71
2022-08-19T18:18:16.979Z,22.67
2022-08-19T18:20:44.177Z,22.66
2022-08-19T18:23:45.503Z,22.82
2022-08-19T18:25:57.243Z,22.54
2022-08-19T18:28:25.449Z,22.48
2022-08-19T18:30:52.348Z,22.41
2022-08-19T18:33:19.529Z,22.30
2022-08-19T18:35:47.101Z,22.25
2022-08-19T18:38:32.815Z,22.18
2022-08-19T18:41:18.088Z,22.11
2022-08-19T18:44:03.274Z,22.33
2022-08-19T18:46:48.599Z,22.33
2022-08-19T18:49:17.484Z,22.43
2022-08-19T18:51:44.273Z,22.39
2022-08-19T18:54:12.598Z,22.27
2022-08-19T18:56:43.538Z,22.71
2022-08-19T18:59:11.333Z,23.12
2022-08-19T19:01:39.563Z,22.69
2022-08-19T19:04:10.537Z,22.39
2022-08-19T19:06:40.205Z,22.14
2022-08-19T19:09:17.617Z,22.18
2022-08-19T19:11:48.302Z,22.26
2022-08-19T19:14:32.761Z,22.06
2022-08-19T19:17:05.239Z,22.12
2022-08-19T19:19:33.173Z,22.01
2022-08-19T19:22:00.983Z,22.14
2022-08-19T19:24:32.608Z,22.26
2022-08-19T19:27:00.525Z,22.45
2022-08-19T19:29:27.316Z,22.32
2022-08-19T19:31:55.954Z,22.29
2022-08-19T19:34:29.579Z,22.42
2022-08-19T19:36:57.039Z,22.26
2022-08-19T19:39:34.015Z,22.20
2022-08-19T19:42:12.485Z,22.17
2022-08-19T19:44:48.722Z,22.15
2022-08-19T19:47:18.926Z,22.04
2022-08-19T19:50:10.638Z,22.04
2022-08-19T19:52:33.046Z,22.02
2022-08-19T19:54:59.895Z,22.08
2022-08-19T19:57:26.884Z,21.73
2022-08-19T19:59:54.208Z,21.87
2022-08-19T20:02:21.971Z,21.75
2022-08-19T20:04:51.142Z,21.70
2022-08-19T20:07:17.801Z,21.69
2022-08-19T20:09:59.413Z,21.80
2022-08-19T20:12:26.656Z,21.79
2022-08-19T20:14:53.137Z,21.63
2022-08-19T20:17:20.670Z,21.73
2022-08-19T20:19:47.989Z,21.78
2022-08-19T20:22:14.833Z,21.92
2022-08-19T20:24:42.671Z,21.80
2022-08-19T20:27:10.753Z,21.85
2022-08-19T20:29:44.179Z,21.77
2022-08-19T20:32:12.404Z,21.73
2022-08-19T20:34:39.850Z,21.58
2022-08-19T20:37:09.494Z,21.97
2022-08-19T20:39:36.590Z,21.80
2022-08-19T20:42:03.287Z,21.79
2022-08-19T20:44:29.791Z,21.80
2022-08-19T20:46:59.405Z,21.70
2022-08-19T20:49:28.597Z,21.68
2022-08-19T20:51:56.196Z,21.71
2022-08-19T20:54:22.661Z,21.65
2022-08-19T20:56:49.205Z,21.68
2022-08-19T20:59:15.699Z,21.48
2022-08-19T21:01:42.239Z,21.40
2022-08-19T21:04:08.770Z,21.38
2022-08-19T21:06:35.261Z,21.39
2022-08-19T21:09:01.772Z,21.13
2022-08-19T21:11:28.274Z,21.19
2022-08-19T21:13:54.890Z,21.02
2022-08-19T21:16:22.050Z,20.99
2022-08-19T21:18:48.666Z,20.99
2022-08-19T21:21:15.864Z,21.23
2022-08-19T21:23:44.089Z,21.41
2022-08-19T21:26:10.872Z,21.56
2022-08-19T21:28:37.472Z,21.60
2022-08-19T21:31:05.319Z,21.38
2022-08-19T21:33:32.847Z,21.28
2022-08-19T21:36:00.086Z,21.13
2022-08-19T21:38:27.139Z,20.94
2022-08-19T21:40:53.826Z,20.90
2022-08-19T21:43:20.478Z,20.91
2022-08-19T21:45:47.586Z,21.04
2022-08-19T21:48:14.772Z,20.99
2022-08-19T21:50:42.038Z,21.19
2022-08-19T21:53:08.720Z,20.87
2022-08-19T21:55:38.635Z,20.79
2022-08-19T21:58:05.166Z,20.76
2022-08-19T22:00:32.523Z,20.91
2022-08-19T22:02:59.142Z,20.71
2022-08-19T22:05:25.791Z,20.58
2022-08-19T22:07:53.481Z,20.54
2022-08-19T22:10:22.363Z,20.69
2022-08-19T22:12:51.732Z,20.75
2022-08-19T22:15:21.135Z,21.20
2022-08-19T22:17:47.694Z,20.69
2022-08-19T22:20:15.304Z,20.70
2022-08-19T22:22:47.225Z,20.74
2022-08-19T22:25:31.532Z,20.78
2022-08-19T22:28:00.476Z,20.93
2022-08-19T22:30:32.377Z,20.88
2022-08-19T22:33:01.303Z,20.93
2022-08-19T22:35:31.335Z,20.90
2022-08-19T22:37:58.901Z,20.96
2022-08-19T22:40:26.211Z,20.99
2022-08-19T22:43:04.370Z,21.12
2022-08-19T22:45:31.632Z,21.03
2022-08-19T22:47:58.116Z,21.01
2022-08-19T22:50:24.658Z,20.92
2022-08-19T22:52:58.182Z,20.86
2022-08-19T22:55:28.203Z,20.84
2022-08-19T22:57:55.493Z,20.73
2022-08-19T23:00:23.835Z,20.73
2022-08-19T23:02:51.751Z,20.78
2022-08-19T23:05:18.879Z,20.71
2022-08-19T23:07:52.100Z,20.71
2022-08-19T23:10:27.220Z,20.73
2022-08-19T23:12:56.334Z,20.74
2022-08-19T23:15:25.788Z,20.66
2022-08-19T23:17:53.413Z,20.52
2022-08-19T23:20:20.546Z,20.59
2022-08-19T23:22:49.620Z,20.67
2022-08-19T23:25:18.069Z,20.53
2022-08-19T23:28:03.530Z,20.32
2022-08-19T23:30:31.230Z,20.42
2022-08-19T23:32:59.207Z,20.53
2022-08-19T23:35:26.514Z,20.47
2022-08-19T23:37:53.092Z,20.59
2022-08-19T23:40:21.894Z,20.53
2022-08-19T23:42:49.805Z,20.76
2022-08-19T23:45:22.947Z,21.01
2022-08-19T23:47:50.829Z,21.11
2022-08-19T23:50:20.545Z,21.00
2022-08-19T23:52:54.661Z,21.02
2022-08-19T23:55:23.245Z,21.09
2022-08-19T23:57:49.926Z,20.85
